createdAt,value
2023-01-15T00:01:22.134Z,100050.03
2023-01-15T00:04:25.622Z,100047.78
2023-01-15T00:07:30.395Z,100034.19
2023-01-15T00:10:34.979Z,100033.37
2023-01-15T00:13:37.812Z,100053.09
2023-01-15T00:16:41.054Z,100035.59
2023-01-15T00:19:43.944Z,100026.44
2023-01-15T00:22:47.129Z,100033.19
2023-01-15T00:26:09.037Z,100033.44
2023-01-15T00:29:13.259Z,100026.84
2023-01-15T00:32:16.192Z,100024.59
2023-01-15T00:35:21.959Z,100023.19
2023-01-15T00:38:25.405Z,100021.25
2023-01-15T00:41:28.591Z,100015.22
2023-01-15T00:44:33.629Z,100013.37
2023-01-15T00:47:40.705Z,100024.59
2023-01-15T00:50:43.637Z,100004.81
2023-01-15T00:53:46.882Z,99990.28
2023-01-15T00:56:49.786Z,99995.19
2023-01-15T00:59:53.686Z,99987.47
2023-01-15T01:02:57.315Z,99995.19
2023-01-15T01:06:02.194Z,100001.53
2023-01-15T01:09:05.275Z,99999.03
2023-01-15T01:12:08.638Z,99991.09
2023-01-15T01:15:11.718Z,99993.34
2023-01-15T01:18:14.965Z,99984.34
2023-01-15T01:21:18.476Z,99991.75
2023-01-15T01:24:23.499Z,100000.41
2023-01-15T01:27:26.421Z,100001.41
2023-01-15T01:30:30.600Z,99988.47
2023-01-15T01:33:33.660Z,99993.25
2023-01-15T01:36:38.836Z,99994.03
2023-01-15T01:39:41.778Z,99984.75
2023-01-15T01:42:45.633Z,99982.50
2023-01-15T01:45:48.687Z,99975.09
2023-01-15T01:48:54.627Z,99966.56
2023-01-15T01:52:10.454Z,99952.19
2023-01-15T01:55:17.431Z,99944.78
2023-01-15T01:58:22.231Z,99943.88
2023-01-15T02:01:27.268Z,99939.97
2023-01-15T02:04:33.115Z,99944.53
2023-01-15T02:07:36.150Z,99941.19
2023-01-15T02:10:39.513Z,99942.63
2023-01-15T02:13:59.008Z,99940.59
2023-01-15T02:17:14.406Z,99941.84
2023-01-15T02:20:31.902Z,99938.34
2023-01-15T02:24:13.636Z,99935.69
2023-01-15T02:27:20.932Z,99922.75
2023-01-15T02:30:29.345Z,99913.88
2023-01-15T02:33:39.025Z,99921.78
2023-01-15T02:36:47.167Z,99916.59
2023-01-15T02:39:52.593Z,99934.56
2023-01-15T02:42:57.030Z,99919.28
2023-01-15T02:46:01.330Z,99909.16
2023-01-15T02:49:07.709Z,99906.28
2023-01-15T02:52:17.227Z,99909.28
2023-01-15T02:55:30.518Z,99915.72
2023-01-15T02:58:36.033Z,99910.78
2023-01-15T03:01:56.970Z,99910.41
2023-01-15T03:05:10.059Z,99899.00
2023-01-15T03:08:14.056Z,99897.19
2023-01-15T03:11:19.221Z,99886.03
2023-01-15T03:14:32.313Z,99885.41
2023-01-15T03:17:39.833Z,99890.56
2023-01-15T03:20:48.792Z,99894.69
2023-01-15T03:23:54.884Z,99885.44
2023-01-15T03:27:01.561Z,99876.78
2023-01-15T03:30:14.155Z,99873.81
2023-01-15T03:33:18.989Z,99867.44
2023-01-15T03:36:23.251Z,99863.94
2023-01-15T03:39:26.658Z,99871.19
2023-01-15T03:42:31.035Z,99870.31
2023-01-15T03:45:35.150Z,99879.75
2023-01-15T03:48:56.393Z,99878.25
2023-01-15T03:52:04.368Z,99873.38
2023-01-15T03:55:23.237Z,99859.34
2023-01-15T03:58:30.901Z,99850.41
2023-01-15T04:01:39.429Z,99849.69
2023-01-15T04:04:45.017Z,99842.53
2023-01-15T04:07:50.663Z,99834.41
2023-01-15T04:11:01.779Z,99834.97
2023-01-15T04:14:05.788Z,99837.06
2023-01-15T04:17:10.443Z,99823.16
2023-01-15T04:20:13.872Z,99814.06
2023-01-15T04:23:18.822Z,99825.50
2023-01-15T04:26:21.866Z,99836.62
2023-01-15T04:29:26.484Z,99834.53
2023-01-15T04:32:29.465Z,99835.69
2023-01-15T04:35:32.782Z,99829.09
2023-01-15T04:38:38.362Z,99824.44
2023-01-15T04:42:00.216Z,99825.66
2023-01-15T04:45:03.435Z,99829.81
2023-01-15T04:48:06.904Z,99828.34
2023-01-15T04:51:09.798Z,99814.69
2023-01-15T04:54:15.192Z,99814.91
2023-01-15T04:57:18.063Z,99810.66
2023-01-15T05:00:23.368Z,99817.72
2023-01-15T05:03:28.867Z,99815.53
2023-01-15T05:06:33.216Z,99803.81
2023-01-15T05:09:36.737Z,99804.50
2023-01-15T05:12:40.033Z,99811.72
2023-01-15T05:15:43.046Z,99803.25
2023-01-15T05:18:47.199Z,99809.66
2023-01-15T05:21:51.591Z,99795.87
2023-01-15T05:24:54.760Z,99801.50
2023-01-15T05:27:57.678Z,99790.19
2023-01-15T05:31:08.019Z,99786.38
2023-01-15T05:34:11.275Z,99785.22
2023-01-15T05:37:14.581Z,99759.94
2023-01-15T05:40:18.080Z,99769.19
2023-01-15T05:43:21.258Z,99758.44
2023-01-15T05:46:24.286Z,99754.00
2023-01-15T05:49:28.542Z,99743.13
2023-01-15T05:52:31.403Z,99758.34
2023-01-15T05:55:34.783Z,99746.59
2023-01-15T05:58:38.121Z,99754.22
2023-01-15T06:01:41.935Z,99763.81
2023-01-15T06:04:45.243Z,99759.69
2023-01-15T06:07:50.296Z,99767.09
2023-01-15T06:10:53.534Z,99782.31
2023-01-15T06:13:57.021Z,99757.66
2023-01-15T06:17:00.485Z,99761.03
2023-01-15T06:20:04.591Z,99769.00
2023-01-15T06:23:08.799Z,99770.22
2023-01-15T06:26:14.832Z,99762.81
2023-01-15T06:29:20.639Z,99759.75
2023-01-15T06:32:23.679Z,99765.25
2023-01-15T06:35:27.421Z,99761.81
2023-01-15T06:38:30.486Z,99760.44
2023-01-15T06:41:52.351Z,99771.66
2023-01-15T06:45:21.577Z,99757.50
2023-01-15T06:48:25.991Z,99766.13
2023-01-15T06:51:31.046Z,99767.72
2023-01-15T06:54:34.705Z,99772.63
2023-01-15T06:57:41.295Z,99764.66
2023-01-15T07:00:45.603Z,99772.84
2023-01-15T07:03:48.598Z,99764.78
2023-01-15T07:06:51.963Z,99771.41
2023-01-15T07:09:54.968Z,99770.31
2023-01-15T07:12:58.202Z,99760.78
2023-01-15T07:16:02.324Z,99755.00
2023-01-15T07:19:05.925Z,99753.53
2023-01-15T07:22:10.146Z,99754.91
2023-01-15T07:25:13.422Z,99754.22
2023-01-15T07:28:17.146Z,99747.41
2023-01-15T07:31:20.483Z,99759.97
2023-01-15T07:34:23.866Z,99761.75
2023-01-15T07:37:28.617Z,99764.09
2023-01-15T07:40:31.818Z,99749.87
2023-01-15T07:43:54.993Z,99745.75
2023-01-15T07:47:16.928Z,99735.22
2023-01-15T07:50:22.775Z,99735.44
2023-01-15T07:53:25.657Z,99745.62
2023-01-15T07:56:28.835Z,99738.91
2023-01-15T07:59:31.805Z,99731.28
2023-01-15T08:02:34.969Z,99721.88
2023-01-15T08:05:38.148Z,99723.88
2023-01-15T08:08:41.119Z,99731.41
2023-01-15T08:12:02.773Z,99742.09
2023-01-15T08:15:15.533Z,99728.78
2023-01-15T08:18:18.827Z,99732.81
2023-01-15T08:21:23.194Z,99736.13
2023-01-15T08:24:27.100Z,99737.22
2023-01-15T08:27:32.659Z,99732.19
2023-01-15T08:30:36.687Z,99732.28
2023-01-15T08:33:39.645Z,99731.38
2023-01-15T08:36:42.960Z,99734.31
2023-01-15T08:39:46.259Z,99731.59
2023-01-15T08:42:49.491Z,99734.22
2023-01-15T08:45:52.988Z,99731.84
2023-01-15T08:48:56.308Z,99733.16
2023-01-15T08:51:59.192Z,99708.38
2023-01-15T08:55:02.545Z,99720.13
2023-01-15T08:58:05.268Z,99705.78
2023-01-15T09:01:10.011Z,99708.44
2023-01-15T09:04:15.450Z,99697.13
2023-01-15T09:07:18.476Z,99691.44
2023-01-15T09:10:22.520Z,99685.31
2023-01-15T09:13:28.140Z,99677.31
2023-01-15T09:16:32.225Z,99653.97
2023-01-15T09:19:35.522Z,99649.16
2023-01-15T09:22:38.597Z,99639.69
2023-01-15T09:26:01.193Z,99639.31
2023-01-15T09:29:04.899Z,99647.62
2023-01-15T09:32:10.035Z,99659.63
2023-01-15T09:35:13.268Z,99657.59
2023-01-15T09:38:17.852Z,99652.53
2023-01-15T09:41:40.788Z,99654.28
2023-01-15T09:45:10.191Z,99654.75
2023-01-15T09:48:25.305Z,99647.00
2023-01-15T09:51:58.106Z,99645.03
2023-01-15T09:55:15.176Z,99641.72
2023-01-15T09:58:21.676Z,99623.25
2023-01-15T10:01:33.476Z,99613.59
2023-01-15T10:04:49.905Z,99609.91
2023-01-15T10:08:05.207Z,99596.91
2023-01-15T10:11:15.800Z,99595.41
2023-01-15T10:14:31.837Z,99588.66
2023-01-15T10:17:49.403Z,99582.84
2023-01-15T10:21:11.079Z,99579.13
2023-01-15T10:24:39.866Z,99572.19
2023-01-15T10:27:46.655Z,99574.09
2023-01-15T10:30:54.217Z,99569.75
2023-01-15T10:34:06.221Z,99559.56
2023-01-15T10:37:14.235Z,99558.66
2023-01-15T10:40:35.254Z,99555.53
2023-01-15T10:43:47.085Z,99544.03
2023-01-15T10:47:00.096Z,99536.00
2023-01-15T10:50:13.705Z,99539.13
2023-01-15T10:53:22.878Z,99541.44
2023-01-15T10:56:33.175Z,99527.91
2023-01-15T10:59:38.607Z,99521.69
2023-01-15T11:02:49.076Z,99523.06
2023-01-15T11:05:52.096Z,99524.19
2023-01-15T11:09:12.450Z,99522.41
2023-01-15T11:12:26.128Z,99500.38
2023-01-15T11:15:48.006Z,99501.78
2023-01-15T11:19:09.489Z,99496.88
2023-01-15T11:22:17.762Z,99507.81
2023-01-15T11:25:32.013Z,99507.72
2023-01-15T11:28:40.392Z,99491.03
2023-01-15T11:31:43.368Z,99471.88
2023-01-15T11:34:57.560Z,99464.31
2023-01-15T11:38:04.482Z,99459.72
2023-01-15T11:41:07.825Z,99439.78
2023-01-15T11:44:29.360Z,99442.50
2023-01-15T11:47:52.242Z,99438.41
2023-01-15T11:51:01.647Z,99429.41
2023-01-15T11:54:05.902Z,99429.16
2023-01-15T11:57:11.013Z,99422.59
2023-01-15T12:00:21.779Z,99418.06
2023-01-15T12:03:28.231Z,99422.34
2023-01-15T12:06:31.767Z,99419.28
2023-01-15T12:09:44.174Z,99420.72
2023-01-15T12:13:15.202Z,99421.22
2023-01-15T12:16:26.217Z,99411.47
2023-01-15T12:19:52.410Z,99402.66
2023-01-15T12:23:09.175Z,99406.09
2023-01-15T12:26:34.151Z,99396.56
2023-01-15T12:29:44.470Z,99400.63
2023-01-15T12:32:56.370Z,99393.09
2023-01-15T12:36:09.294Z,99388.38
2023-01-15T12:39:46.335Z,99392.03
2023-01-15T12:43:12.196Z,99382.84
2023-01-15T12:46:24.307Z,99372.59
2023-01-15T12:49:53.316Z,99373.50
2023-01-15T12:53:14.906Z,99346.22
2023-01-15T12:56:27.146Z,99347.91
2023-01-15T12:59:38.071Z,99355.06
2023-01-15T13:03:06.309Z,99354.34
2023-01-15T13:06:09.995Z,99358.75
2023-01-15T13:09:19.294Z,99347.53
2023-01-15T13:12:22.309Z,99350.47
2023-01-15T13:15:29.778Z,99338.97
2023-01-15T13:18:45.229Z,99345.66
2023-01-15T13:21:53.220Z,99340.84
2023-01-15T13:25:26.435Z,99331.59
2023-01-15T13:28:42.628Z,99330.78
2023-01-15T13:31:59.123Z,99310.50
2023-01-15T13:35:11.769Z,99314.94
2023-01-15T13:38:20.031Z,99309.69
2023-01-15T13:41:45.943Z,99311.72
2023-01-15T13:44:52.283Z,99307.37
2023-01-15T13:47:58.959Z,99310.41
2023-01-15T13:51:06.256Z,99306.00
2023-01-15T13:54:19.416Z,99299.31
2023-01-15T13:57:24.561Z,99303.62
2023-01-15T14:00:40.389Z,99310.66
2023-01-15T14:04:06.494Z,99310.13
2023-01-15T14:07:23.922Z,99311.22
2023-01-15T14:10:38.704Z,99311.69
2023-01-15T14:14:17.077Z,99324.03
2023-01-15T14:17:29.225Z,99321.16
2023-01-15T14:20:53.299Z,99314.31
2023-01-15T14:24:50.153Z,99301.28
2023-01-15T14:28:30.596Z,99303.84
2023-01-15T14:31:44.030Z,99293.81
2023-01-15T14:34:55.641Z,99288.47
2023-01-15T14:38:03.813Z,99286.13
2023-01-15T14:41:07.328Z,99280.97
2023-01-15T14:44:11.548Z,99284.13
2023-01-15T14:47:26.139Z,99278.72
2023-01-15T14:50:34.904Z,99274.06
2023-01-15T14:53:38.541Z,99274.06
2023-01-15T14:56:45.376Z,99272.03
2023-01-15T14:59:55.945Z,99262.88
2023-01-15T15:03:01.103Z,99266.97
2023-01-15T15:06:07.130Z,99262.03
2023-01-15T15:09:14.073Z,99251.84
2023-01-15T15:12:32.193Z,99242.59
2023-01-15T15:15:39.892Z,99248.69
2023-01-15T15:18:48.884Z,99238.34
2023-01-15T15:21:53.292Z,99238.25
2023-01-15T15:24:57.025Z,99242.78
2023-01-15T15:28:10.427Z,99234.75
2023-01-15T15:31:26.253Z,99228.81
2023-01-15T15:34:29.808Z,99226.81
2023-01-15T15:37:35.167Z,99229.59
2023-01-15T15:40:40.759Z,99233.84
2023-01-15T15:44:08.591Z,99227.62
2023-01-15T15:48:03.259Z,99228.38
2023-01-15T15:51:30.282Z,99232.53
2023-01-15T15:54:34.703Z,99230.69
2023-01-15T15:57:39.372Z,99229.06
2023-01-15T16:00:46.300Z,99221.78
2023-01-15T16:03:50.669Z,99226.06
2023-01-15T16:06:55.936Z,99232.91
2023-01-15T16:10:16.124Z,99235.41
2023-01-15T16:13:34.172Z,99232.75
2023-01-15T16:16:38.034Z,99237.28
2023-01-15T16:19:42.749Z,99240.19
2023-01-15T16:22:55.366Z,99233.13
2023-01-15T16:26:24.610Z,99239.72
2023-01-15T16:29:31.903Z,99250.59
2023-01-15T16:32:37.471Z,99242.59
2023-01-15T16:35:42.382Z,99248.03
2023-01-15T16:38:49.317Z,99251.16
2023-01-15T16:41:58.181Z,99251.94
2023-01-15T16:45:07.258Z,99256.06
2023-01-15T16:48:27.567Z,99252.00
2023-01-15T16:51:38.694Z,99254.78
2023-01-15T16:54:45.901Z,99245.09
2023-01-15T16:58:15.832Z,99247.41
2023-01-15T17:01:47.487Z,99245.34
2023-01-15T17:04:54.354Z,99249.91
2023-01-15T17:07:59.512Z,99245.81
2023-01-15T17:11:04.786Z,99242.41
2023-01-15T17:14:22.464Z,99223.84
2023-01-15T17:17:31.573Z,99235.59
2023-01-15T17:20:38.106Z,99241.06
2023-01-15T17:23:44.830Z,99251.53
2023-01-15T17:26:50.815Z,99249.72
2023-01-15T17:29:56.667Z,99252.03
2023-01-15T17:33:02.977Z,99260.81
2023-01-15T17:36:09.581Z,99258.62
2023-01-15T17:39:14.920Z,99255.44
2023-01-15T17:42:24.997Z,99241.41
2023-01-15T17:45:33.025Z,99185.56
2023-01-15T17:48:36.951Z,99179.00
2023-01-15T17:51:43.111Z,99192.19
2023-01-15T17:55:06.160Z,99202.59
2023-01-15T17:58:32.044Z,99206.78
2023-01-15T18:01:58.718Z,99219.94
2023-01-15T18:05:24.942Z,99233.63
2023-01-15T18:08:31.893Z,99245.63
2023-01-15T18:11:38.188Z,99256.50
2023-01-15T18:14:42.855Z,99266.56
2023-01-15T18:17:47.751Z,99268.75
2023-01-15T18:20:51.382Z,99267.97
2023-01-15T18:23:55.818Z,99277.63
2023-01-15T18:26:59.890Z,99279.53
2023-01-15T18:30:03.869Z,99300.22
2023-01-15T18:33:11.368Z,99303.06
2023-01-15T18:36:23.058Z,99286.75
2023-01-15T18:39:27.514Z,99302.19
2023-01-15T18:43:04.765Z,99282.47
2023-01-15T18:46:27.443Z,99301.84
2023-01-15T18:49:37.659Z,99315.06
2023-01-15T18:52:50.674Z,99314.50
2023-01-15T18:55:55.297Z,99312.34
2023-01-15T18:58:59.891Z,99303.75
2023-01-15T19:02:05.082Z,99288.81
2023-01-15T19:05:12.690Z,99287.00
2023-01-15T19:08:17.420Z,99280.03
2023-01-15T19:11:24.884Z,99286.31
2023-01-15T19:14:50.643Z,99286.38
2023-01-15T19:18:13.212Z,99290.22
2023-01-15T19:21:20.451Z,99274.59
2023-01-15T19:24:30.903Z,99274.31
2023-01-15T19:27:36.404Z,99267.75
2023-01-15T19:30:42.288Z,99262.34
2023-01-15T19:33:46.441Z,99262.69
2023-01-15T19:36:50.651Z,99272.53
2023-01-15T19:39:58.046Z,99275.09
2023-01-15T19:43:21.268Z,99267.81
2023-01-15T19:46:44.333Z,99260.94
2023-01-15T19:50:07.341Z,99242.09
2023-01-15T19:53:13.714Z,99214.44
2023-01-15T19:56:19.922Z,99220.84
2023-01-15T19:59:26.585Z,99222.59
2023-01-15T20:02:30.961Z,99234.91
2023-01-15T20:05:37.856Z,99242.78
2023-01-15T20:08:41.854Z,99260.19
2023-01-15T20:12:05.672Z,99265.38
2023-01-15T20:15:10.666Z,99264.44
2023-01-15T20:18:17.090Z,99270.59
2023-01-15T20:21:21.741Z,99266.84
2023-01-15T20:24:26.625Z,99265.44
2023-01-15T20:27:37.320Z,99266.66
2023-01-15T20:30:42.072Z,99270.06
2023-01-15T20:33:47.435Z,99271.63
2023-01-15T20:36:52.078Z,99268.31
2023-01-15T20:39:56.506Z,99272.06
2023-01-15T20:43:19.665Z,99271.63
2023-01-15T20:46:33.937Z,99280.47
2023-01-15T20:49:38.804Z,99280.12
2023-01-15T20:52:52.568Z,99280.66
2023-01-15T20:55:57.803Z,99280.12
2023-01-15T20:59:01.743Z,99274.06
2023-01-15T21:02:08.929Z,99271.44
2023-01-15T21:05:12.794Z,99275.34
2023-01-15T21:08:17.581Z,99267.63
2023-01-15T21:11:25.122Z,99260.44
2023-01-15T21:14:38.812Z,99265.91
2023-01-15T21:17:42.781Z,99258.00
2023-01-15T21:20:47.424Z,99264.69
2023-01-15T21:23:50.922Z,99258.84
2023-01-15T21:26:56.245Z,99266.06
2023-01-15T21:29:59.594Z,99255.06
2023-01-15T21:33:05.132Z,99256.09
2023-01-15T21:36:11.270Z,99254.78
2023-01-15T21:39:16.051Z,99252.19
2023-01-15T21:42:39.659Z,99244.97
2023-01-15T21:45:43.027Z,99253.03
2023-01-15T21:48:47.377Z,99255.31
2023-01-15T21:51:50.625Z,99252.69
2023-01-15T21:54:54.140Z,99261.19
2023-01-15T21:57:58.684Z,99262.31
2023-01-15T22:01:01.685Z,99279.78
2023-01-15T22:04:06.194Z,99275.59
2023-01-15T22:07:09.599Z,99280.62
2023-01-15T22:10:12.848Z,99264.94
2023-01-15T22:13:15.733Z,99254.94
2023-01-15T22:16:19.143Z,99259.03
2023-01-15T22:19:24.042Z,99255.38
2023-01-15T22:22:33.017Z,99244.69
2023-01-15T22:25:36.184Z,99231.59
2023-01-15T22:28:39.380Z,99218.56
2023-01-15T22:31:42.457Z,99216.59
2023-01-15T22:34:47.362Z,99222.72
2023-01-15T22:37:50.291Z,99233.59
2023-01-15T22:40:53.522Z,99240.53
2023-01-15T22:43:56.484Z,99240.44
2023-01-15T22:46:59.980Z,99237.06
2023-01-15T22:50:04.997Z,99237.84
2023-01-15T22:53:09.566Z,99237.84
2023-01-15T22:56:12.369Z,99238.28
2023-01-15T22:59:16.774Z,99234.81
2023-01-15T23:02:40.291Z,99230.16
2023-01-15T23:05:43.618Z,99224.50
2023-01-15T23:08:46.549Z,99236.25
2023-01-15T23:11:51.600Z,99238.84
2023-01-15T23:14:54.855Z,99242.31
2023-01-15T23:17:58.113Z,99243.00
2023-01-15T23:21:08.367Z,99233.16
2023-01-15T23:24:12.355Z,99223.34
2023-01-15T23:27:15.395Z,99204.84
2023-01-15T23:30:18.792Z,99211.28
2023-01-15T23:33:22.935Z,99209.09
2023-01-15T23:36:27.947Z,99196.09
2023-01-15T23:39:31.039Z,99194.25
2023-01-15T23:42:54.002Z,99189.56
2023-01-15T23:46:15.751Z,99175.84
2023-01-15T23:49:19.660Z,99172.81
2023-01-15T23:52:23.774Z,99173.88
2023-01-15T23:55:28.745Z,99174.22
2023-01-15T23:58:32.234Z,99164.59
